Terminal Aerodrome Forecast
Issued by NWS Sterling, VA

Home | Current Version | Previous Version | Text Only | Print | Product List | Glossary On
Versions: 1 2 3 4 5 6 7 8 9 10 11 12 13 14 15 16 17 18 19 20 21 22 23 24 25 26 27 28 29 30
888
FTUS41 KLWX 251132
TAFCHO
TAF
KCHO 251132Z 2512/2612 VRB04KT P6SM SCT008 BKN025
     FM251600 21007KT P6SM BKN035
     FM251800 20009KT P6SM -SHRA VCTS BKN035CB
     FM252300 23008KT P6SM -SHRA BKN045
     FM260000 23007KT P6SM BKN045
     FM261100 24007KT P6SM SCT140=

USA.gov is the U.S. government's official web portal to all federal, state and local government web resources and services.